Time;durP1;ratioP1;P1;durP2;ratioP2;P2;SDS_P1;SDS_P2;PMS_P1;PMS_P2;Temp;Humidity;BMP_temperature;BMP_pressure;BME280_temperature;BME280_humidity;BME280_pressure;Samples;Min_cycle;Max_cycle;Signal;HPM_P1;HPM_P2
2022/03/12 00:00:29;;;;;;;6.10;4.10;;;9.70;99.90;;;;;;5031352;28;20184;-80
2022/03/12 00:02:56;;;;;;;8.13;4.50;;;9.60;99.90;;;;;;5035193;28;20189;-79
2022/03/12 00:05:23;;;;;;;6.93;4.27;;;9.60;99.90;;;;;;5026367;28;20181;-80
2022/03/12 00:07:51;;;;;;;6.20;4.73;;;9.60;99.90;;;;;;5023013;28;20173;-79
2022/03/12 00:10:21;;;;;;;6.03;4.13;;;9.60;99.90;;;;;;5020941;28;20276;-80
2022/03/12 00:12:47;;;;;;;7.00;4.20;;;9.60;99.90;;;;;;5023301;28;20204;-80
2022/03/12 00:15:14;;;;;;;8.37;4.13;;;9.50;99.90;;;;;;5022538;28;20177;-80
2022/03/12 00:17:45;;;;;;;9.17;4.73;;;9.50;99.90;;;;;;5022129;28;20544;-80
2022/03/12 00:20:16;;;;;;;7.17;4.43;;;9.60;99.90;;;;;;5020937;28;20184;-79
2022/03/12 00:22:45;;;;;;;5.43;4.00;;;9.60;99.90;;;;;;5023108;28;20279;-79
2022/03/12 00:25:11;;;;;;;6.60;4.30;;;9.60;99.90;;;;;;5021867;28;20165;-80
2022/03/12 00:27:39;;;;;;;7.17;4.40;;;9.60;99.90;;;;;;5021777;28;20636;-80
2022/03/12 00:30:06;;;;;;;12.20;4.23;;;9.50;99.90;;;;;;5021687;28;20180;-80
2022/03/12 00:32:35;;;;;;;6.83;4.47;;;9.50;99.90;;;;;;5021314;28;20225;-79
2022/03/12 00:35:01;;;;;;;9.33;4.57;;;9.50;99.90;;;;;;5037340;28;20173;-80
2022/03/12 00:37:27;;;;;;;7.40;4.30;;;9.50;99.90;;;;;;5020467;28;20618;-80
2022/03/12 00:39:53;;;;;;;5.97;4.10;;;9.50;99.90;;;;;;5019983;28;20264;-80
2022/03/12 00:42:18;;;;;;;5.73;3.97;;;9.40;99.90;;;;;;5020360;28;20197;-80
2022/03/12 00:44:44;;;;;;;6.27;4.23;;;9.40;99.90;;;;;;5021494;28;20556;-80
2022/03/12 00:47:09;;;;;;;6.37;4.60;;;9.40;99.90;;;;;;5020702;28;20632;-80
2022/03/12 00:49:35;;;;;;;5.80;4.33;;;9.40;99.90;;;;;;5018641;28;20181;-80
2022/03/12 00:52:01;;;;;;;9.00;4.70;;;9.40;99.90;;;;;;5020159;28;20177;-80
2022/03/12 00:54:26;;;;;;;9.60;4.87;;;9.40;99.90;;;;;;5019697;28;20192;-80
2022/03/12 00:56:52;;;;;;;7.13;4.50;;;9.40;99.90;;;;;;5018644;28;20233;-80
2022/03/12 00:59:17;;;;;;;7.97;4.53;;;9.40;99.90;;;;;;5018973;28;20173;-80
2022/03/12 01:01:43;;;;;;;6.33;4.27;;;9.40;99.90;;;;;;5020172;28;20173;-79
2022/03/12 01:04:08;;;;;;;6.13;3.93;;;9.30;99.90;;;;;;5020153;28;20328;-80
2022/03/12 01:06:34;;;;;;;6.07;4.63;;;9.30;99.90;;;;;;5020613;28;20240;-80
2022/03/12 01:09:01;;;;;;;11.17;4.60;;;9.30;99.90;;;;;;5029457;28;20177;-80
2022/03/12 01:11:27;;;;;;;5.67;4.30;;;9.20;99.90;;;;;;5018909;28;20215;-80
2022/03/12 01:13:52;;;;;;;6.20;4.53;;;9.20;99.90;;;;;;5019364;28;20205;-78
2022/03/12 01:16:18;;;;;;;7.47;4.87;;;9.20;99.90;;;;;;5034178;28;20640;-80
2022/03/12 01:18:44;;;;;;;6.90;4.30;;;9.30;99.90;;;;;;5018936;28;20173;-81
2022/03/12 01:21:17;;;;;;;6.03;4.70;;;9.20;99.90;;;;;;5018696;28;20199;-79
2022/03/12 01:23:44;;;;;;;6.97;4.80;;;9.20;99.90;;;;;;5033962;28;20585;-80
2022/03/12 01:26:11;;;;;;;10.90;4.77;;;9.20;99.90;;;;;;5018060;28;20183;-80
2022/03/12 01:28:36;;;;;;;10.77;5.10;;;9.20;99.90;;;;;;5017168;28;20185;-80
2022/03/12 01:31:03;;;;;;;6.07;4.90;;;9.20;99.90;;;;;;5018230;28;20180;-80
2022/03/12 01:33:29;;;;;;;6.63;4.47;;;9.20;99.90;;;;;;5018129;28;20212;-79
2022/03/12 01:35:54;;;;;;;8.03;4.90;;;9.20;99.90;;;;;;5018723;28;20165;-79
2022/03/12 01:38:47;;;;;;;8.40;4.57;;;9.20;99.90;;;;;;5018305;28;20264;-80
2022/03/12 01:41:15;;;;;;;6.87;5.17;;;9.20;99.90;;;;;;5017987;28;20177;-79
2022/03/12 01:43:43;;;;;;;7.50;4.73;;;9.20;99.90;;;;;;5018492;28;20698;-79
2022/03/12 01:46:10;;;;;;;7.23;5.00;;;9.20;99.90;;;;;;5018155;28;20172;-79
2022/03/12 01:48:38;;;;;;;8.33;4.47;;;9.20;99.90;;;;;;5016581;28;20667;-80
2022/03/12 01:51:03;;;;;;;7.20;4.63;;;9.20;99.90;;;;;;5017738;28;20596;-80
2022/03/12 01:53:29;;;;;;;5.60;4.63;;;9.10;99.90;;;;;;5017534;28;20227;-80
2022/03/12 01:55:55;;;;;;;7.07;4.37;;;9.10;99.90;;;;;;5016123;28;20177;-80
2022/03/12 01:58:21;;;;;;;5.63;4.53;;;9.00;99.90;;;;;;5018099;28;20165;-79
2022/03/12 02:00:51;;;;;;;13.97;4.60;;;9.00;99.90;;;;;;5016302;28;20188;-80
2022/03/12 02:03:23;;;;;;;8.83;5.00;;;9.00;99.90;;;;;;5017290;28;20189;-79
2022/03/12 02:05:50;;;;;;;6.40;4.10;;;9.00;99.90;;;;;;5017795;28;20154;-79
2022/03/12 02:08:16;;;;;;;8.53;5.20;;;9.00;99.90;;;;;;5017220;28;20169;-80
2022/03/12 02:10:43;;;;;;;7.97;4.77;;;9.10;99.90;;;;;;5016934;28;20185;-80
2022/03/12 02:13:09;;;;;;;7.53;4.63;;;9.10;99.90;;;;;;5017475;28;20284;-80
2022/03/12 02:15:35;;;;;;;6.33;4.47;;;9.10;99.90;;;;;;5016007;28;20207;-79
2022/03/12 02:18:01;;;;;;;7.77;4.73;;;9.10;99.90;;;;;;5015654;28;20184;-80
2022/03/12 02:20:27;;;;;;;7.30;4.87;;;9.00;99.90;;;;;;5015998;28;20183;-79
2022/03/12 02:22:53;;;;;;;9.13;4.97;;;9.00;99.90;;;;;;5016761;28;20246;-80
2022/03/12 02:25:32;;;;;;;6.37;4.73;;;9.00;99.90;;;;;;5017232;28;20177;-80
2022/03/12 02:27:59;;;;;;;5.67;4.37;;;9.00;99.90;;;;;;5015897;28;20169;-80
2022/03/12 02:30:36;;;;;;;7.87;5.57;;;9.00;99.90;;;;;;5015878;28;20184;-79
2022/03/12 02:33:02;;;;;;;6.30;4.90;;;9.00;99.90;;;;;;5016955;28;20192;-80
2022/03/12 02:35:31;;;;;;;8.57;4.57;;;9.00;99.90;;;;;;5016029;28;20675;-79
2022/03/12 02:37:58;;;;;;;6.10;4.60;;;9.00;99.90;;;;;;5015699;28;20177;-80
2022/03/12 02:40:24;;;;;;;7.50;4.90;;;9.00;99.90;;;;;;5017226;28;20180;-79
2022/03/12 02:42:53;;;;;;;7.00;5.00;;;9.00;99.90;;;;;;5017808;28;20201;-80
2022/03/12 02:45:19;;;;;;;7.40;5.03;;;9.10;99.90;;;;;;5017938;28;20183;-80
2022/03/12 02:47:47;;;;;;;8.03;4.90;;;9.00;99.90;;;;;;5016341;28;20223;-79
2022/03/12 02:50:14;;;;;;;9.07;5.30;;;9.00;99.90;;;;;;5033996;28;20177;-80
2022/03/12 02:52:41;;;;;;;8.70;5.00;;;9.00;99.90;;;;;;5018342;28;20189;-79
2022/03/12 02:55:12;;;;;;;8.63;5.13;;;9.10;99.90;;;;;;5027393;28;20224;-81
2022/03/12 02:57:37;;;;;;;9.23;5.30;;;9.10;99.90;;;;;;5035189;28;20191;-79
2022/03/12 03:00:06;;;;;;;7.90;5.07;;;9.00;99.90;;;;;;5033032;28;20177;-80
2022/03/12 03:02:39;;;;;;;6.47;4.93;;;9.00;99.90;;;;;;5022641;28;20199;-78
2022/03/12 03:08:04;;;;;;;6.03;4.83;;;9.00;99.90;;;;;;5028498;28;20200;-79
2022/03/12 03:10:35;;;;;;;6.60;4.83;;;9.00;99.90;;;;;;5031424;28;20176;-79
2022/03/12 03:13:29;;;;;;;7.47;5.30;;;8.90;99.90;;;;;;5016455;28;20684;-79
2022/03/12 03:15:59;;;;;;;7.23;5.27;;;8.90;99.90;;;;;;5016264;28;20166;-80
2022/03/12 03:18:25;;;;;;;6.70;5.10;;;8.90;99.90;;;;;;5016367;28;20196;-80
2022/03/12 03:20:52;;;;;;;12.03;4.97;;;8.90;99.90;;;;;;5014810;28;20199;-80
2022/03/12 03:23:21;;;;;;;7.27;4.77;;;8.90;99.90;;;;;;5017472;28;20215;-80
2022/03/12 03:25:47;;;;;;;9.77;5.93;;;8.80;99.90;;;;;;5020267;28;20192;-79
2022/03/12 03:28:13;;;;;;;7.93;5.10;;;8.80;99.90;;;;;;5020140;28;20723;-80
2022/03/12 03:30:40;;;;;;;8.97;4.93;;;8.80;99.90;;;;;;5020140;28;20223;-80
2022/03/12 03:33:10;;;;;;;11.67;5.40;;;8.80;99.90;;;;;;5018317;28;20208;-79
2022/03/12 03:35:38;;;;;;;8.93;5.33;;;8.80;99.90;;;;;;5018631;28;20655;-80
2022/03/12 03:38:05;;;;;;;10.63;6.10;;;8.80;99.90;;;;;;5018697;28;20223;-79
2022/03/12 03:40:31;;;;;;;11.47;5.30;;;8.80;99.90;;;;;;5019092;28;20553;-80
2022/03/12 03:42:56;;;;;;;8.53;5.57;;;8.70;99.90;;;;;;5020595;28;20191;-80
2022/03/12 03:45:24;;;;;;;7.13;5.50;;;8.70;99.90;;;;;;5020138;28;20173;-80
2022/03/12 03:47:50;;;;;;;7.63;5.17;;;8.80;99.90;;;;;;5020017;28;20256;-80
2022/03/12 03:50:18;;;;;;;7.93;5.40;;;8.70;99.90;;;;;;5018851;28;20212;-79
2022/03/12 03:52:44;;;;;;;7.00;5.33;;;8.70;99.90;;;;;;5019963;28;20703;-80
2022/03/12 03:55:10;;;;;;;8.00;5.47;;;8.70;99.90;;;;;;5020172;28;20180;-79
2022/03/12 03:57:36;;;;;;;8.93;5.30;;;8.70;99.90;;;;;;5018512;28;20181;-79
2022/03/12 04:00:03;;;;;;;7.23;5.40;;;8.70;99.90;;;;;;5019364;28;20181;-80
2022/03/12 04:02:28;;;;;;;8.03;5.43;;;8.70;99.90;;;;;;5019557;28;20189;-79
2022/03/12 04:04:54;;;;;;;7.20;5.30;;;8.70;99.90;;;;;;5018522;28;20187;-80
2022/03/12 04:07:20;;;;;;;9.40;5.30;;;8.70;99.90;;;;;;5020052;28;20272;-79
2022/03/12 04:09:45;;;;;;;7.77;5.43;;;8.70;99.90;;;;;;5019783;28;20185;-79
2022/03/12 04:12:11;;;;;;;10.60;4.97;;;8.60;99.90;;;;;;5018388;28;20702;-80
2022/03/12 04:14:36;;;;;;;9.57;5.20;;;8.70;99.90;;;;;;5020002;28;20207;-79
2022/03/12 04:17:04;;;;;;;8.33;5.57;;;8.60;99.90;;;;;;5020671;28;20223;-79
2022/03/12 04:19:30;;;;;;;8.60;5.73;;;8.60;99.90;;;;;;5020581;28;20170;-80
2022/03/12 04:21:57;;;;;;;8.20;5.60;;;8.60;99.90;;;;;;5034660;28;20268;-80
2022/03/12 04:24:24;;;;;;;9.47;5.20;;;8.70;99.90;;;;;;5020401;28;20256;-80
2022/03/12 04:26:50;;;;;;;8.20;5.63;;;8.70;99.90;;;;;;5020065;28;20177;-80
2022/03/12 04:29:18;;;;;;;10.23;5.60;;;8.60;99.90;;;;;;5018886;28;20220;-80
2022/03/12 04:31:47;;;;;;;10.90;5.30;;;8.60;99.90;;;;;;5020262;28;20718;-80
2022/03/12 04:34:14;;;;;;;9.20;5.73;;;8.60;99.90;;;;;;5033870;28;20240;-80
2022/03/12 04:36:44;;;;;;;9.07;6.00;;;8.60;99.90;;;;;;5034729;28;20663;-80
2022/03/12 04:39:11;;;;;;;8.40;5.37;;;8.60;99.90;;;;;;5020957;28;20257;-80
2022/03/12 04:41:40;;;;;;;9.00;5.67;;;8.70;99.90;;;;;;5021452;28;20180;-78
2022/03/12 04:44:07;;;;;;;12.37;5.40;;;8.70;99.90;;;;;;5044332;28;20671;-79
2022/03/12 04:46:34;;;;;;;8.70;5.53;;;8.70;99.90;;;;;;5020741;28;20679;-78
2022/03/12 04:49:00;;;;;;;8.20;5.47;;;8.70;99.90;;;;;;5018779;28;20250;-79
2022/03/12 04:51:25;;;;;;;7.50;5.27;;;8.70;99.90;;;;;;5019865;28;20668;-80
2022/03/12 04:53:56;;;;;;;9.47;5.67;;;8.60;99.90;;;;;;5019862;28;20201;-80
2022/03/12 04:56:25;;;;;;;7.60;5.63;;;8.60;99.90;;;;;;5021041;28;20540;-80
2022/03/12 04:58:53;;;;;;;9.77;5.70;;;8.60;99.90;;;;;;5022093;28;20199;-79
2022/03/12 05:01:20;;;;;;;11.50;5.50;;;8.60;99.90;;;;;;5020820;28;20240;-80
2022/03/12 05:03:46;;;;;;;6.93;5.20;;;8.60;99.90;;;;;;5037773;28;20227;-79
2022/03/12 05:06:13;;;;;;;6.97;5.10;;;8.60;99.90;;;;;;5022935;28;20170;-79
2022/03/12 05:08:39;;;;;;;9.67;5.67;;;8.60;99.90;;;;;;5025579;28;20181;-79
2022/03/12 05:11:06;;;;;;;7.80;5.90;;;8.50;99.90;;;;;;5034309;28;20252;-79
2022/03/12 05:13:32;;;;;;;8.00;5.40;;;8.50;99.90;;;;;;5030463;28;20231;-80
2022/03/12 05:16:03;;;;;;;9.80;5.63;;;8.60;99.90;;;;;;5031321;28;20661;-78
2022/03/12 05:18:30;;;;;;;8.70;5.43;;;8.60;99.90;;;;;;5020221;28;20165;-80
2022/03/12 05:20:56;;;;;;;9.63;5.70;;;8.60;99.90;;;;;;5020080;28;20184;-80
2022/03/12 05:23:21;;;;;;;8.17;5.63;;;8.50;99.90;;;;;;5019679;28;20217;-80
2022/03/12 05:25:49;;;;;;;9.03;6.13;;;8.40;99.90;;;;;;5019149;28;20184;-79
2022/03/12 05:28:29;;;;;;;10.07;5.93;;;8.40;99.90;;;;;;5019262;28;20180;-78
2022/03/12 05:30:58;;;;;;;12.17;5.90;;;8.30;99.90;;;;;;5021833;28;20161;-80
2022/03/12 05:33:24;;;;;;;7.13;5.57;;;8.30;99.90;;;;;;5020915;28;20200;-80
2022/03/12 05:35:54;;;;;;;8.40;5.87;;;8.30;99.90;;;;;;5019779;28;20260;-80
2022/03/12 05:38:21;;;;;;;8.20;5.60;;;8.20;99.90;;;;;;5036066;28;20173;-80
2022/03/12 05:40:47;;;;;;;9.57;5.70;;;8.20;99.90;;;;;;5020118;28;20652;-79
2022/03/12 05:43:14;;;;;;;9.93;6.07;;;8.20;99.90;;;;;;5022025;28;20193;-79
2022/03/12 05:45:41;;;;;;;8.07;5.57;;;8.10;99.90;;;;;;5021866;28;20644;-79
2022/03/12 05:48:08;;;;;;;8.17;6.00;;;8.10;99.90;;;;;;5020178;28;20227;-80
2022/03/12 05:50:34;;;;;;;10.93;5.43;;;8.00;99.90;;;;;;5035150;28;20185;-79
2022/03/12 05:53:00;;;;;;;11.07;6.07;;;8.00;99.90;;;;;;5036430;28;20197;-79
2022/03/12 05:55:26;;;;;;;9.23;6.20;;;8.00;99.90;;;;;;5020484;28;20216;-79
2022/03/12 05:57:51;;;;;;;10.83;6.27;;;8.00;99.90;;;;;;5021001;28;20524;-80
2022/03/12 06:00:18;;;;;;;8.73;5.97;;;8.00;99.90;;;;;;5020997;28;20169;-80
2022/03/12 06:02:50;;;;;;;8.20;5.83;;;7.90;99.90;;;;;;5018246;28;20196;-79
2022/03/12 06:05:17;;;;;;;9.80;6.00;;;7.90;99.90;;;;;;5018199;28;20182;-80
2022/03/12 06:07:46;;;;;;;9.90;5.73;;;7.90;99.90;;;;;;5018539;28;20192;-80
2022/03/12 06:10:21;;;;;;;9.33;6.13;;;7.90;99.90;;;;;;5016971;28;20177;-79
2022/03/12 06:12:49;;;;;;;7.40;5.20;;;7.90;99.90;;;;;;5033862;28;20207;-80
2022/03/12 06:15:17;;;;;;;9.20;5.03;;;7.80;99.90;;;;;;5019196;28;20549;-80
2022/03/12 06:17:47;;;;;;;7.33;5.80;;;7.90;99.90;;;;;;5017662;28;20180;-79
2022/03/12 06:20:15;;;;;;;11.50;6.50;;;7.80;99.90;;;;;;5018388;28;20641;-79
2022/03/12 06:22:42;;;;;;;8.07;5.40;;;7.80;99.90;;;;;;5026864;28;20207;-78
2022/03/12 06:25:10;;;;;;;8.57;6.07;;;7.80;99.90;;;;;;5030670;28;20180;-77
2022/03/12 06:27:37;;;;;;;11.07;5.93;;;7.80;1.00;;;;;;5024533;28;20172;-79
2022/03/12 06:30:12;;;;;;;8.80;5.90;;;7.80;1.00;;;;;;5023205;28;20181;-78
2022/03/12 06:32:39;;;;;;;8.90;5.93;;;7.80;1.00;;;;;;5018611;28;20225;-79
2022/03/12 06:35:06;;;;;;;9.07;5.83;;;7.80;1.00;;;;;;5016615;28;20176;-79
2022/03/12 06:37:32;;;;;;;8.37;5.53;;;7.80;1.00;;;;;;5015689;28;20165;-79
2022/03/12 06:39:58;;;;;;;7.63;5.17;;;7.80;1.00;;;;;;5016246;28;20219;-79
2022/03/12 06:42:25;;;;;;;10.30;6.27;;;7.80;1.00;;;;;;5015932;28;20601;-79
2022/03/12 06:44:53;;;;;;;9.03;5.77;;;7.90;1.00;;;;;;5015203;28;20173;-79
2022/03/12 06:47:19;;;;;;;7.97;5.90;;;7.90;1.00;;;;;;5014739;28;20173;-79
2022/03/12 06:49:45;;;;;;;8.50;6.20;;;7.90;1.00;;;;;;5016277;28;20172;-80
2022/03/12 06:52:11;;;;;;;7.67;5.67;;;8.00;1.00;;;;;;5014375;28;20570;-79
2022/03/12 06:54:36;;;;;;;6.97;5.33;;;8.00;1.00;;;;;;5014422;28;20209;-79
2022/03/12 06:57:04;;;;;;;8.37;5.70;;;8.00;1.00;;;;;;5015596;28;20165;-79
2022/03/12 06:59:30;;;;;;;11.90;6.10;;;8.10;1.00;;;;;;5015883;28;20192;-79
2022/03/12 07:01:55;;;;;;;9.13;6.50;;;8.10;1.00;;;;;;5015713;28;20207;-79
2022/03/12 07:04:21;;;;;;;10.80;5.70;;;8.20;1.00;;;;;;5014283;28;20558;-79
2022/03/12 07:06:48;;;;;;;11.27;5.57;;;8.30;1.00;;;;;;5014235;28;20211;-79
2022/03/12 07:09:14;;;;;;;24.00;5.93;;;8.30;1.00;;;;;;5015833;28;20234;-78
2022/03/12 07:11:40;;;;;;;9.00;6.43;;;8.30;1.00;;;;;;5015796;28;20771;-79
2022/03/12 07:14:06;;;;;;;9.80;5.87;;;8.40;1.00;;;;;;5014444;28;20274;-79
2022/03/12 07:16:31;;;;;;;11.13;6.80;;;8.40;1.00;;;;;;5014237;28;20177;-79
2022/03/12 07:18:57;;;;;;;9.00;6.00;;;8.50;1.00;;;;;;5030561;28;20169;-79
2022/03/12 07:21:24;;;;;;;10.43;6.00;;;8.50;1.00;;;;;;5016410;28;20710;-78
2022/03/12 07:23:49;;;;;;;7.47;5.80;;;8.60;1.00;;;;;;5018700;28;20276;-80
2022/03/12 07:26:15;;;;;;;8.50;5.43;;;8.60;1.00;;;;;;5018833;28;20204;-79
2022/03/12 07:28:41;;;;;;;9.27;6.07;;;8.70;1.00;;;;;;5013674;28;20181;-79
2022/03/12 07:31:07;;;;;;;8.70;5.67;;;8.80;1.00;;;;;;5015448;28;20181;-80
2022/03/12 07:33:33;;;;;;;9.73;6.17;;;8.80;1.00;;;;;;5030311;28;20692;-77
2022/03/12 07:35:59;;;;;;;8.07;6.27;;;8.90;1.00;;;;;;5014959;28;20177;-79
2022/03/12 07:38:25;;;;;;;9.80;6.03;;;9.00;1.00;;;;;;5015154;28;20176;-79
2022/03/12 07:40:51;;;;;;;7.07;5.43;;;9.00;1.00;;;;;;5013520;28;20177;-79
2022/03/12 07:43:16;;;;;;;7.20;5.37;;;9.10;1.00;;;;;;5015986;28;20749;-79
2022/03/12 07:45:43;;;;;;;8.90;6.10;;;9.20;1.00;;;;;;5013379;28;20544;-79
2022/03/12 07:48:09;;;;;;;9.17;5.60;;;9.20;1.00;;;;;;5013932;28;20180;-79
2022/03/12 07:50:35;;;;;;;8.40;5.97;;;9.30;1.00;;;;;;5013470;28;20289;-79
2022/03/12 07:53:00;;;;;;;11.43;5.70;;;9.50;1.00;;;;;;5015814;28;20251;-77
2022/03/12 07:55:26;;;;;;;8.13;5.67;;;9.50;1.00;;;;;;5015871;28;20708;-79
2022/03/12 07:57:52;;;;;;;9.40;5.60;;;9.70;1.00;;;;;;5015642;28;20185;-79
2022/03/12 08:00:18;;;;;;;7.60;5.70;;;9.80;1.00;;;;;;5015997;28;20240;-79
2022/03/12 08:02:45;;;;;;;8.80;5.47;;;9.80;1.00;;;;;;5014691;28;20193;-79
2022/03/12 08:05:12;;;;;;;7.70;5.60;;;9.90;1.00;;;;;;5015786;28;20224;-79
2022/03/12 08:07:39;;;;;;;7.43;5.57;;;9.90;1.00;;;;;;5016056;28;20177;-79
2022/03/12 08:10:06;;;;;;;7.37;5.63;;;10.00;1.00;;;;;;5017798;28;20216;-80
2022/03/12 08:12:32;;;;;;;8.47;5.77;;;10.00;1.00;;;;;;5019490;28;20259;-81
2022/03/12 08:14:58;;;;;;;8.00;5.77;;;10.10;1.00;;;;;;5020549;28;20215;-81
2022/03/12 08:17:24;;;;;;;10.33;5.50;;;10.10;1.00;;;;;;5039643;28;20177;-80
2022/03/12 08:19:50;;;;;;;12.33;6.00;;;10.20;1.00;;;;;;5022655;28;20255;-81
2022/03/12 08:22:16;;;;;;;7.57;5.50;;;10.30;1.00;;;;;;5020320;28;20712;-82
2022/03/12 08:24:42;;;;;;;11.07;5.63;;;10.30;1.00;;;;;;5020431;28;20157;-81
2022/03/12 08:27:09;;;;;;;9.63;5.87;;;10.40;1.00;;;;;;5017796;28;20188;-81
2022/03/12 08:29:34;;;;;;;7.67;5.97;;;10.50;1.00;;;;;;5019090;28;20174;-81
2022/03/12 08:32:00;;;;;;;7.47;5.27;;;10.60;1.00;;;;;;5019688;28;20317;-81
2022/03/12 08:34:26;;;;;;;8.93;5.77;;;10.70;1.00;;;;;;5019072;28;20227;-81
2022/03/12 08:36:52;;;;;;;8.53;5.80;;;10.70;1.00;;;;;;5019860;28;20660;-81
2022/03/12 08:39:18;;;;;;;7.17;5.73;;;10.80;1.00;;;;;;5019812;28;20184;-82
2022/03/12 08:41:44;;;;;;;6.90;5.67;;;10.90;1.00;;;;;;5019463;28;20204;-81
2022/03/12 08:44:11;;;;;;;7.63;5.90;;;11.00;1.00;;;;;;5020807;28;20709;-81
2022/03/12 08:46:37;;;;;;;7.73;5.87;;;11.10;1.00;;;;;;5018145;28;20185;-82
2022/03/12 08:49:03;;;;;;;11.13;5.73;;;11.10;1.00;;;;;;5018681;28;20236;-81
2022/03/12 08:51:29;;;;;;;7.33;5.43;;;11.10;1.00;;;;;;5018205;28;20177;-81
2022/03/12 08:53:55;;;;;;;10.43;5.70;;;11.20;1.00;;;;;;5017913;28;20559;-82
2022/03/12 08:56:21;;;;;;;7.23;5.83;;;11.30;1.00;;;;;;5019432;28;20173;-81
2022/03/12 08:58:47;;;;;;;10.13;6.40;;;11.30;1.00;;;;;;5034359;28;20173;-80
2022/03/12 09:01:13;;;;;;;8.93;6.00;;;11.40;1.00;;;;;;5019435;28;20220;-80
2022/03/12 09:03:40;;;;;;;7.13;5.70;;;11.40;1.00;;;;;;5017569;28;20208;-80
2022/03/12 09:06:07;;;;;;;7.47;5.70;;;11.50;1.00;;;;;;5019881;28;20196;-80
2022/03/12 09:08:34;;;;;;;7.43;6.10;;;11.50;1.00;;;;;;5021487;28;20187;-79
2022/03/12 09:11:00;;;;;;;8.00;6.03;;;11.60;1.00;;;;;;5031204;28;20189;-80
2022/03/12 09:13:26;;;;;;;10.27;6.23;;;11.60;1.00;;;;;;5031333;28;20209;-80
2022/03/12 09:15:51;;;;;;;9.53;6.17;;;11.70;1.00;;;;;;5018707;28;20664;-81
2022/03/12 09:18:17;;;;;;;9.37;6.43;;;11.70;1.00;;;;;;5017170;28;20217;-80
2022/03/12 09:20:47;;;;;;;6.77;5.57;;;11.80;1.00;;;;;;5014884;28;20733;-80
2022/03/12 09:23:20;;;;;;;10.23;6.37;;;11.80;1.00;;;;;;5016817;28;20212;-80
2022/03/12 09:25:50;;;;;;;6.93;5.83;;;11.90;1.00;;;;;;5018311;28;20640;-81
2022/03/12 09:28:17;;;;;;;7.80;5.97;;;11.90;1.00;;;;;;5016445;28;20248;-80
2022/03/12 09:30:42;;;;;;;11.60;6.37;;;12.10;1.00;;;;;;5016281;28;20193;-80
2022/03/12 09:33:09;;;;;;;9.80;6.20;;;12.10;1.00;;;;;;5016145;28;20201;-79
2022/03/12 09:35:35;;;;;;;11.30;6.43;;;12.10;1.00;;;;;;5017756;28;20173;-79
2022/03/12 09:38:02;;;;;;;9.37;6.37;;;12.10;1.00;;;;;;5017498;28;20177;-77
2022/03/12 09:40:29;;;;;;;9.83;6.23;;;12.10;1.00;;;;;;5016415;28;20671;-79
2022/03/12 09:42:55;;;;;;;8.43;6.50;;;12.20;1.00;;;;;;5018694;28;20201;-79
2022/03/12 09:45:22;;;;;;;9.13;7.00;;;12.20;1.00;;;;;;5015785;28;20264;-78
2022/03/12 09:47:49;;;;;;;9.47;6.73;;;12.20;1.00;;;;;;5016208;28;20173;-78
2022/03/12 09:50:14;;;;;;;10.00;6.37;;;12.30;1.00;;;;;;5015383;28;20188;-79
2022/03/12 09:52:41;;;;;;;9.23;6.93;;;12.30;1.00;;;;;;5016833;28;20307;-78
2022/03/12 09:55:07;;;;;;;7.00;6.10;;;12.40;1.00;;;;;;5015765;28;20667;-78
2022/03/12 09:57:34;;;;;;;9.07;6.53;;;12.40;1.00;;;;;;5016746;28;20571;-79
2022/03/12 10:00:00;;;;;;;8.90;6.43;;;12.40;1.00;;;;;;5018530;28;20200;-79
2022/03/12 10:02:26;;;;;;;8.17;6.43;;;12.50;1.00;;;;;;5016529;28;20204;-79
2022/03/12 10:04:51;;;;;;;7.73;5.97;;;12.60;1.00;;;;;;5020513;28;20174;-78
2022/03/12 10:07:17;;;;;;;8.43;6.63;;;12.60;1.00;;;;;;5018850;28;20227;-79
2022/03/12 10:09:42;;;;;;;8.07;6.23;;;12.60;1.00;;;;;;5016268;28;20663;-79
2022/03/12 10:12:09;;;;;;;9.77;6.13;;;12.70;1.00;;;;;;5016722;28;20173;-80
2022/03/12 10:14:35;;;;;;;7.93;6.17;;;12.80;1.00;;;;;;5017119;28;20184;-78
2022/03/12 10:17:02;;;;;;;10.50;6.53;;;12.90;1.00;;;;;;5017948;28;20192;-79
2022/03/12 10:19:29;;;;;;;6.80;6.10;;;12.90;1.00;;;;;;5019787;28;20169;-78
2022/03/12 10:21:55;;;;;;;8.00;6.27;;;13.10;1.00;;;;;;5018337;28;20165;-79
2022/03/12 10:24:21;;;;;;;10.63;5.93;;;13.10;1.00;;;;;;5016351;28;20254;-78
2022/03/12 10:26:46;;;;;;;6.33;5.33;;;13.20;1.00;;;;;;5013900;28;20187;-77
2022/03/12 10:29:12;;;;;;;7.97;5.60;;;13.30;1.00;;;;;;5015415;28;20177;-78
2022/03/12 10:31:41;;;;;;;7.10;5.13;;;13.40;6.00;;;;;;5015720;28;20209;-78
2022/03/12 10:34:21;;;;;;;8.03;5.50;;;13.60;1.00;;;;;;5013794;28;20362;-78
2022/03/12 10:36:49;;;;;;;8.40;5.07;;;13.70;1.00;;;;;;5015345;28;20650;-78
2022/03/12 10:39:14;;;;;;;8.10;4.87;;;13.80;1.00;;;;;;5014671;28;20233;-78
2022/03/12 10:41:41;;;;;;;6.67;4.60;;;13.90;1.00;;;;;;5013327;28;20258;-78
2022/03/12 10:44:07;;;;;;;7.07;4.97;;;14.00;1.00;;;;;;5014951;28;20224;-78
2022/03/12 10:46:35;;;;;;;6.40;4.83;;;14.00;1.00;;;;;;5015474;28;20223;-76
2022/03/12 10:49:03;;;;;;;6.40;4.73;;;14.10;1.00;;;;;;5015093;28;20168;-78
2022/03/12 10:51:40;;;;;;;6.20;4.93;;;14.20;1.00;;;;;;5014896;28;20172;-78
2022/03/12 10:54:08;;;;;;;7.57;5.53;;;14.30;1.00;;;;;;5014875;28;20197;-78
2022/03/12 10:56:43;;;;;;;7.73;4.33;;;14.30;1.00;;;;;;5014971;28;20165;-77
2022/03/12 10:59:24;;;;;;;6.17;4.37;;;14.30;1.00;;;;;;5014622;28;20145;-79
2022/03/12 11:01:56;;;;;;;6.80;4.83;;;14.30;1.00;;;;;;5030054;28;20172;-78
2022/03/12 11:04:27;;;;;;;5.80;4.00;;;14.30;1.00;;;;;;5015227;28;20188;-78
2022/03/12 11:06:57;;;;;;;7.07;4.23;;;14.30;1.00;;;;;;5014643;28;20164;-78
2022/03/12 11:09:32;;;;;;;7.00;4.03;;;14.30;1.00;;;;;;5014596;28;20162;-78
2022/03/12 11:12:00;;;;;;;6.97;4.30;;;14.30;1.00;;;;;;5014454;28;20199;-77
2022/03/12 11:14:29;;;;;;;6.87;3.93;;;14.30;1.00;;;;;;5013275;28;20684;-77
2022/03/12 11:16:55;;;;;;;6.47;4.07;;;14.40;1.00;;;;;;5013257;28;20197;-78
2022/03/12 11:19:41;;;;;;;5.73;4.03;;;14.40;1.00;;;;;;5014519;28;20169;-78
2022/03/12 11:22:12;;;;;;;7.27;3.83;;;14.40;1.00;;;;;;5014717;28;20193;-78
2022/03/12 11:24:46;;;;;;;5.50;3.67;;;14.50;1.00;;;;;;5013774;28;20176;-78
2022/03/12 11:27:18;;;;;;;5.73;3.47;;;14.60;1.00;;;;;;5015536;28;20592;-77
2022/03/12 11:29:56;;;;;;;4.67;3.40;;;14.60;1.00;;;;;;5015337;28;20169;-78
2022/03/12 11:32:22;;;;;;;7.00;4.00;;;14.60;1.00;;;;;;5015619;28;20192;-78
2022/03/12 11:34:47;;;;;;;4.57;3.50;;;14.60;1.00;;;;;;5015387;28;20176;-78
2022/03/12 11:37:16;;;;;;;6.40;3.57;;;14.60;1.00;;;;;;5014974;28;20173;-78
2022/03/12 11:39:52;;;;;;;6.10;3.40;;;14.70;1.00;;;;;;5015573;28;20162;-78
2022/03/12 11:42:22;;;;;;;4.17;3.07;;;14.70;1.00;;;;;;5029996;28;20683;-78
2022/03/12 11:44:51;;;;;;;6.77;2.97;;;14.80;1.00;;;;;;5017756;28;20169;-78
2022/03/12 11:47:19;;;;;;;5.23;3.27;;;14.80;1.00;;;;;;5019276;28;20180;-79
2022/03/12 11:49:46;;;;;;;5.37;3.00;;;14.90;1.00;;;;;;5019793;28;20176;-79
2022/03/12 11:52:12;;;;;;;6.83;3.10;;;15.00;1.00;;;;;;5022398;28;20192;-77
2022/03/12 11:54:41;;;;;;;4.53;3.13;;;15.00;1.00;;;;;;5018932;28;20193;-78
2022/03/12 11:57:08;;;;;;;6.83;3.23;;;15.00;1.00;;;;;;5017884;28;20180;-78
2022/03/12 11:59:34;;;;;;;6.47;3.20;;;15.00;1.00;;;;;;5017169;28;20200;-77
2022/03/12 12:02:22;;;;;;;4.10;3.03;;;15.00;1.00;;;;;;5018422;28;20173;-77
2022/03/12 12:04:51;;;;;;;5.10;2.77;;;15.00;1.00;;;;;;5015875;28;20193;-78
2022/03/12 12:07:16;;;;;;;7.43;3.10;;;15.00;1.00;;;;;;5023579;28;20181;-77
2022/03/12 12:09:42;;;;;;;4.97;2.70;;;15.10;1.00;;;;;;5023871;28;20180;-77
2022/03/12 12:12:13;;;;;;;4.17;2.87;;;15.00;1.00;;;;;;5024703;28;20173;-77
2022/03/12 12:14:40;;;;;;;3.60;3.00;;;15.10;1.00;;;;;;5023093;28;20189;-77
2022/03/12 12:17:06;;;;;;;5.13;2.90;;;15.10;1.00;;;;;;5024470;28;20199;-77
2022/03/12 12:19:31;;;;;;;4.37;2.63;;;15.20;1.00;;;;;;5022694;28;20165;-79
2022/03/12 12:21:57;;;;;;;4.23;2.63;;;15.30;1.00;;;;;;5019700;28;20173;-78
2022/03/12 12:24:35;;;;;;;7.07;3.30;;;15.30;1.00;;;;;;5019585;28;20691;-78
2022/03/12 12:27:02;;;;;;;5.93;2.57;;;15.30;1.00;;;;;;5019604;28;20242;-78
2022/03/12 12:29:41;;;;;;;5.33;2.77;;;15.50;1.00;;;;;;5019223;28;20679;-79
2022/03/12 12:32:08;;;;;;;6.70;2.90;;;15.40;1.00;;;;;;5018195;28;20227;-79
2022/03/12 12:34:35;;;;;;;5.53;2.83;;;15.40;1.00;;;;;;5020577;28;20195;-80
2022/03/12 12:37:02;;;;;;;6.63;2.90;;;15.40;1.00;;;;;;5019278;28;20304;-80
2022/03/12 12:39:28;;;;;;;3.30;2.33;;;15.30;1.00;;;;;;5017675;28;20264;-77
2022/03/12 12:41:58;;;;;;;7.33;2.77;;;15.30;1.00;;;;;;5016973;28;20200;-77
2022/03/12 12:44:42;;;;;;;3.87;2.43;;;15.40;1.00;;;;;;5016857;28;20648;-77
2022/03/12 12:47:17;;;;;;;6.23;2.63;;;15.40;1.00;;;;;;5014634;28;20184;-77
2022/03/12 12:49:49;;;;;;;6.30;3.30;;;15.40;1.00;;;;;;5016340;28;20176;-77
2022/03/12 12:52:15;;;;;;;4.83;3.30;;;15.50;1.00;;;;;;5031486;28;20179;-77
2022/03/12 12:55:01;;;;;;;6.50;3.13;;;15.60;1.00;;;;;;5015867;28;20295;-77
2022/03/12 12:57:43;;;;;;;3.93;3.20;;;15.60;1.00;;;;;;5015863;28;20162;-77
2022/03/12 13:00:21;;;;;;;4.63;3.00;;;15.60;1.00;;;;;;5015114;28;20175;-77
2022/03/12 13:02:49;;;;;;;5.77;3.57;;;15.60;1.00;;;;;;5015795;28;20200;-77